createdAt,value
2023-02-02T00:01:51.992Z,97159.63
2023-02-02T00:04:22.949Z,97153.28
2023-02-02T00:06:51.028Z,97154.47
2023-02-02T00:09:21.237Z,97150.03
2023-02-02T00:11:51.079Z,97139.22
2023-02-02T00:14:19.375Z,97135.38
2023-02-02T00:16:50.144Z,97136.94
2023-02-02T00:19:21.337Z,97138.44
2023-02-02T00:21:49.879Z,97138.38
2023-02-02T00:24:19.457Z,97145.78
2023-02-02T00:26:53.373Z,97147.34
2023-02-02T00:29:25.591Z,97141.75
2023-02-02T00:31:55.699Z,97143.34
2023-02-02T00:34:24.464Z,97145.31
2023-02-02T00:36:52.876Z,97149.47
2023-02-02T00:39:25.305Z,97143.06
2023-02-02T00:41:53.480Z,97149.34
2023-02-02T00:44:39.046Z,97150.41
2023-02-02T00:47:08.649Z,97136.72
2023-02-02T00:49:36.786Z,97147.56
2023-02-02T00:52:06.902Z,97145.84
2023-02-02T00:54:35.023Z,97146.53
2023-02-02T00:57:03.838Z,97143.13
2023-02-02T00:59:32.608Z,97128.63
2023-02-02T01:02:02.176Z,97140.19
2023-02-02T01:04:31.874Z,97145.72
2023-02-02T01:06:59.990Z,97130.59
2023-02-02T01:09:28.094Z,97147.56
2023-02-02T01:11:56.737Z,97127.56
2023-02-02T01:14:27.098Z,97151.03
2023-02-02T01:16:57.117Z,97152.47
2023-02-02T01:19:25.245Z,97151.59
2023-02-02T01:21:55.423Z,97160.38
2023-02-02T01:24:23.621Z,97156.59
2023-02-02T01:26:53.040Z,97164.34
2023-02-02T01:29:21.141Z,97160.94
2023-02-02T01:31:49.507Z,97151.66
2023-02-02T01:34:17.674Z,97143.78
2023-02-02T01:36:45.938Z,97151.97
2023-02-02T01:39:16.087Z,97166.53
2023-02-02T01:41:44.314Z,97142.78
2023-02-02T01:45:07.481Z,97148.22
2023-02-02T01:47:42.379Z,97154.72
2023-02-02T01:50:13.198Z,97152.88
2023-02-02T01:52:42.930Z,97133.22
2023-02-02T01:55:16.656Z,97131.66
2023-02-02T01:57:50.822Z,97141.22
2023-02-02T02:00:24.898Z,97148.69
2023-02-02T02:03:02.212Z,97137.16
2023-02-02T02:05:36.271Z,97149.19
2023-02-02T02:08:13.114Z,97137.28
2023-02-02T02:10:42.520Z,97126.19
2023-02-02T02:13:11.643Z,97133.59
2023-02-02T02:16:15.763Z,97124.47
2023-02-02T02:18:56.102Z,97124.06
2023-02-02T02:21:58.604Z,97141.50
2023-02-02T02:25:38.705Z,97136.75
2023-02-02T02:28:54.268Z,97132.97
2023-02-02T02:32:00.085Z,97146.84
2023-02-02T02:34:45.323Z,97144.03
2023-02-02T02:37:23.965Z,97136.66
2023-02-02T02:39:58.979Z,97146.53
2023-02-02T02:42:31.933Z,97140.56
2023-02-02T02:45:04.975Z,97126.53
2023-02-02T02:47:35.835Z,97137.41
2023-02-02T02:50:04.747Z,97131.03
2023-02-02T02:52:34.362Z,97143.47
2023-02-02T02:55:05.465Z,97142.00
2023-02-02T02:57:53.090Z,97136.00
2023-02-02T03:00:47.373Z,97146.84
2023-02-02T03:03:34.503Z,97133.56
2023-02-02T03:06:13.549Z,97141.81
2023-02-02T03:08:47.817Z,97151.63
2023-02-02T03:11:17.592Z,97143.41
2023-02-02T03:13:45.968Z,97140.38
2023-02-02T03:16:16.110Z,97149.44
2023-02-02T03:18:45.843Z,97142.34
2023-02-02T03:21:14.036Z,97147.47
2023-02-02T03:23:42.308Z,97159.97
2023-02-02T03:26:10.436Z,97153.09
2023-02-02T03:28:38.613Z,97145.84
2023-02-02T03:31:07.086Z,97136.38
2023-02-02T03:33:37.817Z,97140.50
2023-02-02T03:36:08.690Z,97139.91
2023-02-02T03:38:36.706Z,97138.50
2023-02-02T03:41:06.241Z,97141.78
2023-02-02T03:43:34.310Z,97142.75
2023-02-02T03:46:05.237Z,97147.81
2023-02-02T03:48:37.008Z,97145.66
2023-02-02T03:51:09.512Z,97155.03
2023-02-02T03:53:37.606Z,97149.47
2023-02-02T03:56:06.710Z,97149.16
2023-02-02T03:58:34.896Z,97162.53
2023-02-02T04:01:05.079Z,97169.22
2023-02-02T04:03:33.582Z,97169.19
2023-02-02T04:06:01.922Z,97168.28
2023-02-02T04:08:31.547Z,97177.47
2023-02-02T04:11:10.031Z,97169.19
2023-02-02T04:13:38.154Z,97172.41
2023-02-02T04:16:07.512Z,97175.97
2023-02-02T04:18:37.824Z,97172.38
2023-02-02T04:21:08.513Z,97170.03
2023-02-02T04:23:38.821Z,97167.41
2023-02-02T04:26:07.437Z,97173.31
2023-02-02T04:28:35.575Z,97172.78
2023-02-02T04:31:03.941Z,97169.22
2023-02-02T04:33:31.974Z,97181.38
2023-02-02T04:36:00.034Z,97181.75
2023-02-02T04:38:28.395Z,97189.25
2023-02-02T04:40:57.763Z,97187.84
2023-02-02T04:43:25.914Z,97193.44
2023-02-02T04:45:57.501Z,97189.59
2023-02-02T04:48:25.790Z,97192.28
2023-02-02T04:51:01.293Z,97193.41
2023-02-02T04:53:29.635Z,97204.06
2023-02-02T04:55:59.605Z,97213.19
2023-02-02T04:58:27.624Z,97208.72
2023-02-02T05:00:55.823Z,97214.97
2023-02-02T05:03:23.902Z,97218.75
2023-02-02T05:05:52.039Z,97219.78
2023-02-02T05:08:20.199Z,97231.81
2023-02-02T05:10:50.159Z,97216.81
2023-02-02T05:13:19.631Z,97240.38
2023-02-02T05:15:47.901Z,97234.19
2023-02-02T05:18:16.460Z,97240.44
2023-02-02T05:20:44.485Z,97245.78
2023-02-02T05:23:12.510Z,97238.09
2023-02-02T05:25:40.536Z,97242.22
2023-02-02T05:28:08.601Z,97243.31
2023-02-02T05:30:40.596Z,97245.34
2023-02-02T05:33:08.661Z,97263.28
2023-02-02T05:35:36.733Z,97244.66
2023-02-02T05:38:04.994Z,97264.91
2023-02-02T05:40:33.140Z,97254.75
2023-02-02T05:43:01.359Z,97266.41
2023-02-02T05:45:29.430Z,97268.16
2023-02-02T05:47:58.780Z,97272.13
2023-02-02T05:50:26.940Z,97268.91
2023-02-02T05:53:03.787Z,97275.09
2023-02-02T05:55:32.308Z,97274.50
2023-02-02T05:58:00.347Z,97271.94
2023-02-02T06:00:28.469Z,97271.28
2023-02-02T06:02:58.062Z,97271.69
2023-02-02T06:05:26.467Z,97269.88
2023-02-02T06:07:54.669Z,97261.66
2023-02-02T06:10:22.758Z,97263.31
2023-02-02T06:12:50.914Z,97254.59
2023-02-02T06:15:19.203Z,97263.72
2023-02-02T06:17:47.287Z,97263.72
2023-02-02T06:20:16.924Z,97272.41
2023-02-02T06:22:44.943Z,97269.25
2023-02-02T06:25:13.013Z,97285.84
2023-02-02T06:27:41.206Z,97277.75
2023-02-02T06:30:11.147Z,97291.34
2023-02-02T06:32:39.729Z,97282.44
2023-02-02T06:35:09.650Z,97288.69
2023-02-02T06:37:39.953Z,97297.47
2023-02-02T06:40:10.233Z,97297.72
2023-02-02T06:42:38.585Z,97301.50
2023-02-02T06:45:07.679Z,97294.88
2023-02-02T06:47:35.889Z,97290.66
2023-02-02T06:50:04.284Z,97298.78
2023-02-02T06:52:32.364Z,97292.31
2023-02-02T06:55:01.881Z,97300.84
2023-02-02T06:57:30.002Z,97302.16
2023-02-02T06:59:58.226Z,97305.09
2023-02-02T07:02:26.384Z,97305.88
2023-02-02T07:04:54.435Z,97312.66
2023-02-02T07:07:22.481Z,97307.31
2023-02-02T07:09:57.970Z,97306.34
2023-02-02T07:12:28.364Z,97296.63
2023-02-02T07:14:56.743Z,97304.59
2023-02-02T07:17:24.757Z,97304.38
2023-02-02T07:19:52.764Z,97309.38
2023-02-02T07:22:21.062Z,97310.31
2023-02-02T07:24:49.153Z,97311.94
2023-02-02T07:27:17.283Z,97307.41
2023-02-02T07:29:46.695Z,97297.84
2023-02-02T07:32:14.907Z,97304.31
2023-02-02T07:34:44.111Z,97301.00
2023-02-02T07:37:12.129Z,97311.66
2023-02-02T07:39:40.644Z,97309.97
2023-02-02T07:42:32.712Z,97314.13
2023-02-02T07:45:26.811Z,97311.06
2023-02-02T07:47:56.919Z,97314.94
2023-02-02T07:50:25.360Z,97310.78
2023-02-02T07:52:53.656Z,97308.03
2023-02-02T07:55:22.195Z,97304.75
2023-02-02T07:57:52.786Z,97298.69
2023-02-02T08:00:24.821Z,97300.75
2023-02-02T08:02:53.247Z,97288.53
2023-02-02T08:05:22.844Z,97288.31
2023-02-02T08:07:51.119Z,97297.78
2023-02-02T08:10:19.467Z,97292.47
2023-02-02T08:12:47.563Z,97299.75
2023-02-02T08:15:15.740Z,97303.34
2023-02-02T08:17:49.837Z,97292.53
2023-02-02T08:20:20.667Z,97302.94
2023-02-02T08:22:48.737Z,97293.50
2023-02-02T08:25:16.908Z,97296.84
2023-02-02T08:27:45.124Z,97308.13
2023-02-02T08:30:14.660Z,97303.94
2023-02-02T08:32:42.881Z,97316.97
2023-02-02T08:35:13.104Z,97322.28
2023-02-02T08:37:41.173Z,97329.72
2023-02-02T08:40:11.628Z,97340.44
2023-02-02T08:42:39.844Z,97324.31
2023-02-02T08:46:02.363Z,97337.44
2023-02-02T08:48:10.718Z,97342.50
2023-02-02T08:50:40.986Z,97358.97
2023-02-02T08:53:09.260Z,97364.81
2023-02-02T08:55:37.293Z,97372.72
2023-02-02T08:58:05.312Z,97365.59
2023-02-02T09:00:33.824Z,97380.13
2023-02-02T09:03:02.041Z,97393.25
2023-02-02T09:05:30.345Z,97386.75
2023-02-02T09:08:00.366Z,97393.97
2023-02-02T09:10:28.487Z,97393.47
2023-02-02T09:12:56.580Z,97379.78
2023-02-02T09:15:24.966Z,97383.13
2023-02-02T09:17:53.653Z,97377.84
2023-02-02T09:20:22.146Z,97374.06
2023-02-02T09:22:50.542Z,97387.72
2023-02-02T09:25:19.946Z,97392.34
2023-02-02T09:27:48.198Z,97392.22
2023-02-02T09:30:20.202Z,97390.66
2023-02-02T09:32:51.162Z,97390.03
2023-02-02T09:35:19.266Z,97391.97
2023-02-02T09:37:47.365Z,97398.38
2023-02-02T09:40:19.513Z,97397.97
2023-02-02T09:43:04.068Z,97396.84
2023-02-02T09:45:46.726Z,97398.31
2023-02-02T09:48:29.553Z,97409.31
2023-02-02T09:51:01.864Z,97410.91
2023-02-02T09:53:54.396Z,97403.38
2023-02-02T09:56:33.905Z,97408.91
2023-02-02T09:59:18.765Z,97415.59
2023-02-02T10:01:51.705Z,97428.13
2023-02-02T10:04:26.667Z,97420.72
2023-02-02T10:07:00.084Z,97425.59
2023-02-02T10:09:40.816Z,97402.13
2023-02-02T10:12:27.025Z,97413.09
2023-02-02T10:15:04.696Z,97408.03
2023-02-02T10:17:43.047Z,97409.25
2023-02-02T10:20:24.628Z,97408.53
2023-02-02T10:22:55.469Z,97420.22
2023-02-02T10:25:28.208Z,97406.03
2023-02-02T10:28:05.339Z,97415.72
2023-02-02T10:30:46.509Z,97413.06
2023-02-02T10:33:29.211Z,97415.31
2023-02-02T10:36:08.376Z,97417.34
2023-02-02T10:38:43.433Z,97424.88
2023-02-02T10:41:20.991Z,97425.22
2023-02-02T10:44:16.696Z,97427.03
2023-02-02T10:46:50.459Z,97443.38
2023-02-02T10:49:31.172Z,97439.00
2023-02-02T10:52:14.584Z,97439.91
2023-02-02T10:54:57.865Z,97436.25
2023-02-02T10:57:46.888Z,97438.19
2023-02-02T11:00:25.439Z,97445.44
2023-02-02T11:02:54.378Z,97431.16
2023-02-02T11:05:43.029Z,97444.94
2023-02-02T11:08:17.411Z,97443.06
2023-02-02T11:10:48.261Z,97439.34
2023-02-02T11:13:26.428Z,97438.03
2023-02-02T11:16:21.741Z,97427.38
2023-02-02T11:18:50.631Z,97416.59
2023-02-02T11:21:21.980Z,97426.84
2023-02-02T11:23:56.633Z,97421.63
2023-02-02T11:26:26.494Z,97420.59
2023-02-02T11:28:58.723Z,97417.94
2023-02-02T11:31:37.667Z,97415.69
2023-02-02T11:34:20.681Z,97418.19
2023-02-02T11:41:03.833Z,97432.16
2023-02-02T11:43:41.085Z,97422.81
2023-02-02T11:47:03.173Z,97419.13
2023-02-02T11:49:37.833Z,97421.81
2023-02-02T11:52:23.479Z,97429.06
2023-02-02T11:54:53.964Z,97424.72
2023-02-02T11:57:25.274Z,97418.47
2023-02-02T12:00:17.013Z,97429.06
2023-02-02T12:02:49.563Z,97414.84
2023-02-02T12:05:37.953Z,97412.28
2023-02-02T12:08:09.088Z,97416.53
2023-02-02T12:10:45.075Z,97407.53
2023-02-02T12:13:26.318Z,97408.81
2023-02-02T12:16:09.058Z,97417.00
2023-02-02T12:18:52.116Z,97414.91
2023-02-02T12:21:33.212Z,97412.91
2023-02-02T12:24:22.135Z,97412.50
2023-02-02T12:26:57.911Z,97413.03
2023-02-02T12:29:45.462Z,97417.09
2023-02-02T12:32:29.983Z,97415.31
2023-02-02T12:35:23.082Z,97415.84
2023-02-02T12:38:03.053Z,97418.81
2023-02-02T12:40:50.471Z,97416.56
2023-02-02T12:43:31.532Z,97400.66
2023-02-02T12:46:22.085Z,97411.94
2023-02-02T12:49:14.138Z,97421.09
2023-02-02T12:52:00.476Z,97423.25
2023-02-02T12:54:49.083Z,97419.19
2023-02-02T12:57:29.574Z,97420.47
2023-02-02T13:00:46.702Z,97421.75
2023-02-02T13:03:31.109Z,97427.13
2023-02-02T13:06:28.436Z,97424.47
2023-02-02T13:09:03.308Z,97431.34
2023-02-02T13:11:41.979Z,97436.28
2023-02-02T13:14:16.511Z,97443.31
2023-02-02T13:16:50.187Z,97443.50
2023-02-02T13:19:32.978Z,97434.81
2023-02-02T13:22:07.043Z,97438.44
2023-02-02T13:24:44.154Z,97439.97
2023-02-02T13:27:20.214Z,97438.78
2023-02-02T13:29:55.348Z,97431.38
2023-02-02T13:32:29.914Z,97451.72
2023-02-02T13:35:04.458Z,97446.47
2023-02-02T13:37:43.552Z,97457.03
2023-02-02T13:40:27.664Z,97447.09
2023-02-02T13:43:06.856Z,97447.44
2023-02-02T13:45:49.032Z,97457.25
2023-02-02T13:48:31.153Z,97453.41
2023-02-02T13:51:32.944Z,97465.94
2023-02-02T13:54:34.396Z,97469.66
2023-02-02T13:57:20.423Z,97467.41
2023-02-02T13:59:58.669Z,97461.44
2023-02-02T14:02:33.830Z,97468.91
2023-02-02T14:05:04.820Z,97471.00
2023-02-02T14:07:42.521Z,97466.41
2023-02-02T14:10:26.632Z,97467.53
2023-02-02T14:12:57.430Z,97465.38
2023-02-02T14:15:40.387Z,97471.28
2023-02-02T14:18:08.872Z,97471.91
2023-02-02T14:20:47.639Z,97465.94
2023-02-02T14:23:53.809Z,97473.59
2023-02-02T14:26:43.898Z,97473.06
2023-02-02T14:29:58.184Z,97479.78
2023-02-02T14:32:42.125Z,97468.94
2023-02-02T14:36:02.594Z,97484.50
2023-02-02T14:39:12.177Z,97477.13
2023-02-02T14:42:34.796Z,97481.09
2023-02-02T14:45:30.912Z,97479.00
2023-02-02T14:48:03.206Z,97488.84
2023-02-02T14:50:49.202Z,97485.84
2023-02-02T14:53:28.488Z,97485.97
2023-02-02T14:56:01.617Z,97496.44
2023-02-02T14:58:35.088Z,97479.22
2023-02-02T15:01:13.443Z,97483.66
2023-02-02T15:03:52.966Z,97501.06
2023-02-02T15:06:34.519Z,97505.63
2023-02-02T15:09:38.332Z,97502.69
2023-02-02T15:12:45.853Z,97503.72
2023-02-02T15:15:21.241Z,97499.41
2023-02-02T15:18:12.664Z,97505.00
2023-02-02T15:20:48.896Z,97499.91
2023-02-02T15:23:28.769Z,97509.38
2023-02-02T15:26:04.883Z,97501.41
2023-02-02T15:28:43.319Z,97498.09
2023-02-02T15:31:22.785Z,97512.84
2023-02-02T15:33:56.546Z,97514.25
2023-02-02T15:36:27.909Z,97514.47
2023-02-02T15:38:59.064Z,97518.09
2023-02-02T15:41:33.262Z,97523.66
2023-02-02T15:44:01.648Z,97533.81
2023-02-02T15:46:34.369Z,97525.16
2023-02-02T15:49:35.083Z,97539.84
2023-02-02T15:52:15.033Z,97535.94
2023-02-02T15:54:53.948Z,97533.81
2023-02-02T15:57:29.485Z,97531.81
2023-02-02T15:59:58.373Z,97542.00
2023-02-02T16:02:38.832Z,97552.63
2023-02-02T16:05:40.838Z,97550.19
2023-02-02T16:08:16.238Z,97558.88
2023-02-02T16:10:46.598Z,97549.72
2023-02-02T16:13:27.453Z,97556.28
2023-02-02T16:16:02.040Z,97561.66
2023-02-02T16:18:32.209Z,97563.81
2023-02-02T16:21:07.814Z,97580.03
2023-02-02T16:23:38.084Z,97566.09
2023-02-02T16:26:08.773Z,97583.94
2023-02-02T16:28:37.304Z,97575.75
2023-02-02T16:31:14.173Z,97588.03
2023-02-02T16:33:44.770Z,97599.53
2023-02-02T16:36:25.581Z,97614.91
2023-02-02T16:38:56.190Z,97623.41
2023-02-02T16:41:32.262Z,97633.91
2023-02-02T16:44:37.857Z,97645.06
2023-02-02T16:47:08.402Z,97644.56
2023-02-02T16:49:37.784Z,97649.34
2023-02-02T16:52:17.129Z,97661.78
2023-02-02T16:54:54.993Z,97655.56
2023-02-02T16:57:27.606Z,97660.78
2023-02-02T17:00:03.364Z,97666.34
2023-02-02T17:02:35.119Z,97673.53
2023-02-02T17:05:08.384Z,97683.69
2023-02-02T17:07:40.472Z,97674.69
2023-02-02T17:10:25.187Z,97687.81
2023-02-02T17:12:54.298Z,97680.94
2023-02-02T17:15:52.760Z,97688.78
2023-02-02T17:18:21.072Z,97700.91
2023-02-02T17:20:57.229Z,97698.81
2023-02-02T17:23:30.557Z,97697.00
2023-02-02T17:25:59.237Z,97695.38
2023-02-02T17:28:29.941Z,97690.97
2023-02-02T17:31:04.065Z,97703.88
2023-02-02T17:33:34.424Z,97711.09
2023-02-02T17:36:03.113Z,97713.41
2023-02-02T17:38:33.455Z,97717.50
2023-02-02T17:41:03.904Z,97727.81
2023-02-02T17:43:33.285Z,97715.69
2023-02-02T17:46:03.388Z,97721.75
2023-02-02T17:48:31.808Z,97714.56
2023-02-02T17:51:03.468Z,97711.28
2023-02-02T17:53:34.736Z,97710.94
2023-02-02T17:56:03.369Z,97713.72
2023-02-02T17:58:31.394Z,97708.16
2023-02-02T18:01:00.703Z,97705.88
2023-02-02T18:03:34.213Z,97708.97
2023-02-02T18:06:04.670Z,97711.25
2023-02-02T18:08:35.764Z,97717.00
2023-02-02T18:11:04.657Z,97715.38
2023-02-02T18:13:33.450Z,97716.66
2023-02-02T18:16:01.697Z,97720.28
2023-02-02T18:18:30.072Z,97717.97
2023-02-02T18:20:59.401Z,97717.34
2023-02-02T18:23:28.276Z,97725.03
2023-02-02T18:25:58.514Z,97726.16
2023-02-02T18:28:26.704Z,97726.31
2023-02-02T18:30:55.485Z,97720.59
2023-02-02T18:33:23.890Z,97707.03
2023-02-02T18:35:52.312Z,97710.78
2023-02-02T18:38:22.000Z,97719.59
2023-02-02T18:40:58.199Z,97716.00
2023-02-02T18:43:26.313Z,97713.88
2023-02-02T18:46:01.566Z,97715.19
2023-02-02T18:48:30.379Z,97726.50
2023-02-02T18:50:58.684Z,97719.28
2023-02-02T18:53:27.107Z,97725.34
2023-02-02T18:55:56.765Z,97719.63
2023-02-02T18:58:26.243Z,97721.44
2023-02-02T19:00:54.642Z,97707.66
2023-02-02T19:03:22.847Z,97718.47
2023-02-02T19:06:09.345Z,97708.34
2023-02-02T19:08:37.488Z,97713.72
2023-02-02T19:11:17.343Z,97710.59
2023-02-02T19:13:46.240Z,97718.66
2023-02-02T19:16:40.457Z,97717.00
2023-02-02T19:19:18.356Z,97716.34
2023-02-02T19:21:47.456Z,97717.50
2023-02-02T19:24:16.294Z,97715.38
2023-02-02T19:26:50.303Z,97713.06
2023-02-02T19:29:21.922Z,97717.81
2023-02-02T19:31:54.369Z,97717.34
2023-02-02T19:34:24.377Z,97715.88
2023-02-02T19:36:52.551Z,97718.81
2023-02-02T19:39:27.891Z,97723.38
2023-02-02T19:42:00.833Z,97731.09
2023-02-02T19:44:34.335Z,97727.66
2023-02-02T19:47:21.122Z,97737.00
2023-02-02T19:49:49.484Z,97743.72
2023-02-02T19:52:24.379Z,97749.44
2023-02-02T19:54:54.094Z,97749.44
2023-02-02T19:57:36.874Z,97741.72
2023-02-02T20:00:21.148Z,97734.03
2023-02-02T20:03:02.562Z,97741.41
2023-02-02T20:05:58.126Z,97731.59
2023-02-02T20:08:32.962Z,97731.91
2023-02-02T20:11:07.374Z,97735.53
2023-02-02T20:13:44.896Z,97738.63
2023-02-02T20:16:17.461Z,97727.63
2023-02-02T20:18:50.873Z,97733.84
2023-02-02T20:21:24.861Z,97735.84
2023-02-02T20:23:53.208Z,97729.59
2023-02-02T20:26:27.455Z,97739.94
2023-02-02T20:29:00.153Z,97735.16
2023-02-02T20:31:39.574Z,97737.63
2023-02-02T20:34:25.475Z,97733.06
2023-02-02T20:36:55.389Z,97721.91
2023-02-02T20:39:30.428Z,97723.72
2023-02-02T20:41:58.805Z,97712.09
2023-02-02T20:44:29.883Z,97705.03
2023-02-02T20:47:00.415Z,97715.69
2023-02-02T20:49:31.612Z,97711.59
2023-02-02T20:52:03.643Z,97729.78
2023-02-02T20:54:33.053Z,97738.94
2023-02-02T20:57:02.129Z,97742.53
2023-02-02T20:59:32.093Z,97740.09
2023-02-02T21:02:01.702Z,97747.47
2023-02-02T21:04:30.358Z,97751.41
2023-02-02T21:06:59.512Z,97748.78
2023-02-02T21:09:28.523Z,97746.31
2023-02-02T21:11:56.894Z,97750.56
2023-02-02T21:14:25.109Z,97744.34
2023-02-02T21:17:08.834Z,97742.88
2023-02-02T21:19:42.363Z,97745.97
2023-02-02T21:22:11.626Z,97751.41
2023-02-02T21:24:39.917Z,97747.78
2023-02-02T21:27:11.500Z,97749.09
2023-02-02T21:29:41.287Z,97751.25
2023-02-02T21:32:10.776Z,97753.69
2023-02-02T21:34:39.081Z,97763.53
2023-02-02T21:37:14.702Z,97750.75
2023-02-02T21:39:48.713Z,97752.38
2023-02-02T21:42:21.522Z,97758.13
2023-02-02T21:44:58.145Z,97753.69
2023-02-02T21:47:55.591Z,97754.34
2023-02-02T21:50:29.749Z,97748.94
2023-02-02T21:53:22.592Z,97751.06
2023-02-02T21:55:55.132Z,97767.28
2023-02-02T21:58:28.833Z,97764.81
2023-02-02T22:01:03.491Z,97765.47
2023-02-02T22:03:58.723Z,97764.00
2023-02-02T22:06:34.321Z,97764.66
2023-02-02T22:09:16.371Z,97769.06
2023-02-02T22:11:50.935Z,97761.88
2023-02-02T22:14:26.773Z,97758.41
2023-02-02T22:16:59.355Z,97751.72
2023-02-02T22:19:34.249Z,97759.72
2023-02-02T22:22:21.497Z,97760.88
2023-02-02T22:25:00.477Z,97765.78
2023-02-02T22:27:41.461Z,97772.81
2023-02-02T22:30:24.219Z,97762.03
2023-02-02T22:32:53.373Z,97771.03
2023-02-02T22:35:23.490Z,97761.88
2023-02-02T22:37:52.735Z,97774.47
2023-02-02T22:40:22.705Z,97767.78
2023-02-02T22:42:53.013Z,97767.94
2023-02-02T22:45:22.126Z,97772.53
2023-02-02T22:47:51.577Z,97767.28
2023-02-02T22:50:24.859Z,97769.41
2023-02-02T22:52:54.356Z,97771.06
2023-02-02T22:55:23.505Z,97773.03
2023-02-02T22:57:53.303Z,97772.03
2023-02-02T23:00:26.871Z,97772.03
2023-02-02T23:02:59.016Z,97767.47
2023-02-02T23:05:30.108Z,97774.66
2023-02-02T23:07:59.139Z,97771.06
2023-02-02T23:10:38.784Z,97767.28
2023-02-02T23:13:07.916Z,97765.47
2023-02-02T23:15:36.631Z,97768.44
2023-02-02T23:18:05.874Z,97771.53
2023-02-02T23:20:35.610Z,97785.97
2023-02-02T23:23:05.892Z,97791.69
2023-02-02T23:25:34.543Z,97798.91
2023-02-02T23:28:02.916Z,97804.16
2023-02-02T23:30:51.313Z,97800.19
2023-02-02T23:33:19.839Z,97791.88
2023-02-02T23:35:51.728Z,97799.88
2023-02-02T23:38:19.925Z,97802.34
2023-02-02T23:40:47.954Z,97798.22
2023-02-02T23:43:17.611Z,97807.41
2023-02-02T23:45:45.853Z,97811.00
2023-02-02T23:48:14.055Z,97804.47
2023-02-02T23:50:47.011Z,97810.88
2023-02-02T23:53:16.932Z,97810.53
2023-02-02T23:55:46.294Z,97809.06
2023-02-02T23:58:15.598Z,97808.41
